Astra — PB4187 — position and weather

sailwx.info

Track history (hours):
 
Tides and Currents Weather Stations Pressure Air Temp Water Temp Dewpoint Dewpoint Depression Visibility Wind Speed Wind Dir Waves Ship Positions

Astra

Last reported at 2015-Jul-08 01:26 UTC. Time now 2015-Jul-08 02:17 UTC.
Position N 50°50' E 006°59'.

Length 110 m; draft 2.8 m.

Type: Other ship. MMSI: 244650752.

Date/timePositionNaut miles runAvg speedWind from/ knotsBaromVisibWave heightAir tempDewpointWater temp
2015-Jul-08 01:26N 50°50' E 006°59'4 4.0
2015-Jul-08 00:26N 50°53' E 007°03'4 3.7
2015-Jul-07 23:29N 50°55' E 006°58'16 3.3
2015-Jul-07 18:33N 51°10' E 006°48'4 3.6
2015-Jul-07 17:33N 51°13' E 006°44'20 3.1
2015-Jul-07 11:13N 51°32' E 006°41'3 4.0
2015-Jul-07 10:33N 51°35' E 006°39'17 4.0
2015-Jul-07 06:18N 51°46' E 006°20'12 4.0
2015-Jul-07 03:23N 51°52' E 006°03'8 4.5
2015-Jul-07 01:32N 51°52' E 005°50'16 5.4
2015-Jul-06 22:31N 51°50' E 005°24'5 4.8
2015-Jul-06 21:32N 51°49' E 005°16'14 6.9
2015-Jul-06 19:32N 51°49' E 004°54'7 7.2
2015-Jul-06 18:33N 51°45' E 004°44'9 8.8
2015-Jul-06 17:33N 51°42' E 004°31'5 4.6
2015-Jul-06 16:33N 51°41' E 004°24'9 8.7
2015-Jul-06 15:33N 51°37' E 004°12'8 8.0
2015-Jul-06 14:33N 51°29' E 004°13'3 2.3
2015-Jul-06 13:23N 51°26' E 004°14'3 3.3
2015-Jul-06 12:33N 51°24' E 004°15'6 5.8
2015-Jul-06 11:32N 51°18' E 004°19'0 0.0
2015-Jul-06 10:33N 51°18' E 004°19'0 0.0
2015-Jul-06 09:33N 51°18' E 004°19'3 2.7
2015-Jul-06 08:33N 51°16' E 004°20'0 0.0
2015-Jul-06 07:33N 51°16' E 004°20'0 0.0
2015-Jul-06 06:33N 51°16' E 004°20'0 0.0
2015-Jul-06 05:33N 51°16' E 004°20'0 0.0
2015-Jul-06 04:33N 51°16' E 004°20'0 0.0
2015-Jul-06 03:33N 51°16' E 004°20'0 0.0
2015-Jul-06 02:33N 51°16' E 004°20'0 0.0
2015-Jul-06 01:33N 51°16' E 004°20'2 1.6
2015-Jul-06 00:33N 51°16' E 004°22'0 0.0
2015-Jul-05 23:33N 51°16' E 004°22'0 0.0
2015-Jul-05 22:33N 51°16' E 004°22'0 0.0
2015-Jul-05 21:33N 51°16' E 004°22'0 0.0
2015-Jul-05 20:33N 51°16' E 004°22'0 0.0
2015-Jul-05 19:33N 51°16' E 004°22'0 0.0
2015-Jul-05 18:33N 51°16' E 004°22'0 0.0
2015-Jul-05 17:33N 51°16' E 004°22'0 0.0
2015-Jul-05 16:33N 51°16' E 004°22'0 0.0
2015-Jul-05 15:33N 51°16' E 004°22'0 0.0
2015-Jul-05 14:33N 51°16' E 004°22'0 0.0
2015-Jul-05 13:33N 51°16' E 004°22'0 0.0
2015-Jul-05 12:33N 51°16' E 004°22'0 0.0
2015-Jul-05 11:33N 51°16' E 004°22'0 0.0
2015-Jul-05 10:33N 51°16' E 004°22'0 0.0
2015-Jul-05 09:33N 51°16' E 004°22'0 0.0
2015-Jul-05 08:33N 51°16' E 004°22'0 0.0
2015-Jul-05 07:33N 51°16' E 004°22'0 0.0
2015-Jul-05 06:33N 51°16' E 004°22'0 0.0
2015-Jul-05 05:33N 51°16' E 004°22'0 0.0
2015-Jul-05 04:33N 51°16' E 004°22'0 0.0
2015-Jul-05 03:33N 51°16' E 004°22'0 0.0
2015-Jul-05 02:33N 51°16' E 004°22'0 0.0
2015-Jul-05 01:33N 51°16' E 004°22'0 0.0
2015-Jul-05 00:33N 51°16' E 004°22'0 0.0
2015-Jul-04 23:33N 51°16' E 004°22'0 0.0
2015-Jul-04 22:33N 51°16' E 004°22'0 0.0
2015-Jul-04 21:33N 51°16' E 004°22'0 0.0
2015-Jul-04 20:33N 51°16' E 004°22'0 0.0
2015-Jul-04 19:33N 51°16' E 004°22'0 0.0
2015-Jul-04 18:33N 51°16' E 004°22'0 0.0
2015-Jul-04 17:33N 51°16' E 004°22'0 0.0
2015-Jul-04 16:33N 51°16' E 004°22'0 0.0
2015-Jul-04 15:33N 51°16' E 004°22'0 0.0
2015-Jul-04 14:33N 51°16' E 004°22'0 0.0
2015-Jul-04 13:33N 51°16' E 004°22'0 0.0
2015-Jul-04 12:33N 51°16' E 004°22'0 0.0
2015-Jul-04 11:33N 51°16' E 004°22'0 0.0
2015-Jul-04 10:33N 51°16' E 004°22'0 0.0
2015-Jul-04 09:33N 51°16' E 004°22'0 0.0
2015-Jul-04 08:33N 51°16' E 004°22'0 0.0
2015-Jul-04 07:33N 51°16' E 004°22'0 0.0
2015-Jul-04 06:33N 51°16' E 004°22'0 0.0
2015-Jul-04 05:33N 51°16' E 004°22'0 0.1
2015-Jul-04 04:33N 51°16' E 004°22'1 0.9
2015-Jul-04 03:33N 51°17' E 004°22'0 0.0
2015-Jul-04 02:33N 51°17' E 004°22'0 0.0
2015-Jul-04 01:33N 51°17' E 004°22'0 0.0
2015-Jul-04 00:33N 51°17' E 004°22'0 0.0
2015-Jul-03 23:33N 51°17' E 004°22'0 0.0
2015-Jul-03 22:33N 51°17' E 004°22'0 0.0
2015-Jul-03 21:33N 51°17' E 004°22'0 0.0
2015-Jul-03 20:33N 51°17' E 004°22'0 0.0
2015-Jul-03 19:33N 51°17' E 004°22'0 0.0
2015-Jul-03 18:33N 51°17' E 004°22'0 0.0
2015-Jul-03 17:33N 51°17' E 004°22'0 0.0
2015-Jul-03 16:33N 51°17' E 004°22'0 0.1
2015-Jul-03 15:33N 51°17' E 004°22'0 0.0
2015-Jul-03 14:33N 51°17' E 004°22'0 0.0
2015-Jul-03 13:33N 51°17' E 004°22'0 0.0
2015-Jul-03 12:33N 51°17' E 004°22'0 0.0
2015-Jul-03 11:33N 51°17' E 004°22'0 0.0
2015-Jul-03 10:33N 51°17' E 004°22'0 0.0
2015-Jul-03 09:33N 51°17' E 004°22'0 0.0
2015-Jul-03 08:33N 51°17' E 004°22'0 0.0
2015-Jul-03 07:33N 51°17' E 004°22'0 0.0
2015-Jul-03 06:33N 51°17' E 004°22'0 0.0
2015-Jul-03 05:33N 51°17' E 004°22'0 0.0
2015-Jul-03 04:33N 51°17' E 004°22'0 0.0
2015-Jul-03 03:33N 51°17' E 004°22'0 0.0
2015-Jul-03 02:33N 51°17' E 004°22'0 0.0
2015-Jul-03 01:33N 51°17' E 004°22'0 0.0
2015-Jul-03 00:33N 51°17' E 004°22'0 0.0
2015-Jul-02 23:33N 51°17' E 004°22'0 0.0
2015-Jul-02 22:33N 51°17' E 004°22'0 0.0
2015-Jul-02 21:33N 51°17' E 004°22'0 0.0
2015-Jul-02 20:33N 51°17' E 004°22'0 0.0
2015-Jul-02 19:33N 51°17' E 004°22'0 0.0
2015-Jul-02 18:33N 51°17' E 004°22'1 1.2
2015-Jul-02 17:33N 51°18' E 004°20'0 0.0
2015-Jul-02 16:33N 51°18' E 004°20'0 0.0
2015-Jul-02 15:33N 51°18' E 004°20'0 0.0
2015-Jul-02 14:33N 51°18' E 004°20'0 0.0
2015-Jul-02 13:33N 51°18' E 004°20'0 0.0
2015-Jul-02 12:33N 51°18' E 004°20'0 0.0
2015-Jul-02 11:33N 51°18' E 004°20'0 0.0
2015-Jul-02 10:33N 51°18' E 004°20'0 0.0
2015-Jul-02 09:33N 51°18' E 004°20'0 0.0
2015-Jul-02 08:33N 51°18' E 004°20'0 0.0
2015-Jul-02 07:33N 51°18' E 004°20'0 0.0
2015-Jul-02 06:33N 51°18' E 004°20'0 0.0
2015-Jul-02 05:33N 51°18' E 004°20'3 3.4
2015-Jul-02 04:33N 51°21' E 004°18'6 5.8
2015-Jul-02 03:33N 51°26' E 004°14'2 1.9
2015-Jul-02 02:33N 51°28' E 004°14'6 6.2
2015-Jul-02 01:33N 51°34' E 004°13'5 4.8
2015-Jul-02 00:29N 51°39' E 004°16'9 4.4
2015-Jul-01 22:31N 51°42' E 004°29'6 6.7
2015-Jul-01 21:33N 51°43' E 004°39'7 6.9
2015-Jul-01 20:30N 51°48' E 004°48'18 7.7
2015-Jul-01 18:14N 51°49' E 005°17'21 7.6
2015-Jul-01 15:30N 51°52' E 005°50'8 5.8
2015-Jul-01 14:09N 51°52' E 006°02'9 8.7
2015-Jul-01 13:10N 51°49' E 006°16'15 7.6
2015-Jul-01 11:09N 51°40' E 006°34'6 6.4
2015-Jul-01 10:16N 51°35' E 006°39'17 6.3
2015-Jul-01 07:33N 51°18' E 006°43'6 5.7
2015-Jul-01 06:33N 51°12' E 006°44'20 6.6
2015-Jul-01 03:29N 50°54' E 006°59'  
Track history (hours):
 
Tides and Currents Weather Stations Pressure Air Temp Water Temp Dewpoint Dewpoint Depression Visibility Wind Speed Wind Dir Waves Ship Positions

Astra

Last reported at 2015-Jul-08 01:26 UTC. Time now 2015-Jul-08 02:17 UTC.
Position N 50°50' E 006°59'.

Length 110 m; draft 2.8 m.

Type: Other ship. MMSI: 244650752.

Date/timePositionNaut miles runAvg speedWind from/ knotsBaromVisibWave heightAir tempDewpointWater temp
2015-Jul-08 01:26N 50°50' E 006°59'4 4.0
2015-Jul-08 00:26N 50°53' E 007°03'4 3.7
2015-Jul-07 23:29N 50°55' E 006°58'16 3.3
2015-Jul-07 18:33N 51°10' E 006°48'4 3.6
2015-Jul-07 17:33N 51°13' E 006°44'20 3.1
2015-Jul-07 11:13N 51°32' E 006°41'3 4.0
2015-Jul-07 10:33N 51°35' E 006°39'17 4.0
2015-Jul-07 06:18N 51°46' E 006°20'12 4.0
2015-Jul-07 03:23N 51°52' E 006°03'8 4.5
2015-Jul-07 01:32N 51°52' E 005°50'16 5.4
2015-Jul-06 22:31N 51°50' E 005°24'5 4.8
2015-Jul-06 21:32N 51°49' E 005°16'14 6.9
2015-Jul-06 19:32N 51°49' E 004°54'7 7.2
2015-Jul-06 18:33N 51°45' E 004°44'9 8.8
2015-Jul-06 17:33N 51°42' E 004°31'5 4.6
2015-Jul-06 16:33N 51°41' E 004°24'9 8.7
2015-Jul-06 15:33N 51°37' E 004°12'8 8.0
2015-Jul-06 14:33N 51°29' E 004°13'3 2.3
2015-Jul-06 13:23N 51°26' E 004°14'3 3.3
2015-Jul-06 12:33N 51°24' E 004°15'6 5.8
2015-Jul-06 11:32N 51°18' E 004°19'0 0.0
2015-Jul-06 10:33N 51°18' E 004°19'0 0.0
2015-Jul-06 09:33N 51°18' E 004°19'3 2.7
2015-Jul-06 08:33N 51°16' E 004°20'0 0.0
2015-Jul-06 07:33N 51°16' E 004°20'0 0.0
2015-Jul-06 06:33N 51°16' E 004°20'0 0.0
2015-Jul-06 05:33N 51°16' E 004°20'0 0.0
2015-Jul-06 04:33N 51°16' E 004°20'0 0.0
2015-Jul-06 03:33N 51°16' E 004°20'0 0.0
2015-Jul-06 02:33N 51°16' E 004°20'0 0.0
2015-Jul-06 01:33N 51°16' E 004°20'2 1.6
2015-Jul-06 00:33N 51°16' E 004°22'0 0.0
2015-Jul-05 23:33N 51°16' E 004°22'0 0.0
2015-Jul-05 22:33N 51°16' E 004°22'0 0.0
2015-Jul-05 21:33N 51°16' E 004°22'0 0.0
2015-Jul-05 20:33N 51°16' E 004°22'0 0.0
2015-Jul-05 19:33N 51°16' E 004°22'0 0.0
2015-Jul-05 18:33N 51°16' E 004°22'0 0.0
2015-Jul-05 17:33N 51°16' E 004°22'0 0.0
2015-Jul-05 16:33N 51°16' E 004°22'0 0.0
2015-Jul-05 15:33N 51°16' E 004°22'0 0.0
2015-Jul-05 14:33N 51°16' E 004°22'0 0.0
2015-Jul-05 13:33N 51°16' E 004°22'0 0.0
2015-Jul-05 12:33N 51°16' E 004°22'0 0.0
2015-Jul-05 11:33N 51°16' E 004°22'0 0.0
2015-Jul-05 10:33N 51°16' E 004°22'0 0.0
2015-Jul-05 09:33N 51°16' E 004°22'0 0.0
2015-Jul-05 08:33N 51°16' E 004°22'0 0.0
2015-Jul-05 07:33N 51°16' E 004°22'0 0.0
2015-Jul-05 06:33N 51°16' E 004°22'0 0.0
2015-Jul-05 05:33N 51°16' E 004°22'0 0.0
2015-Jul-05 04:33N 51°16' E 004°22'0 0.0
2015-Jul-05 03:33N 51°16' E 004°22'0 0.0
2015-Jul-05 02:33N 51°16' E 004°22'0 0.0
2015-Jul-05 01:33N 51°16' E 004°22'0 0.0
2015-Jul-05 00:33N 51°16' E 004°22'0 0.0
2015-Jul-04 23:33N 51°16' E 004°22'0 0.0
2015-Jul-04 22:33N 51°16' E 004°22'0 0.0
2015-Jul-04 21:33N 51°16' E 004°22'0 0.0
2015-Jul-04 20:33N 51°16' E 004°22'0 0.0
2015-Jul-04 19:33N 51°16' E 004°22'0 0.0
2015-Jul-04 18:33N 51°16' E 004°22'0 0.0
2015-Jul-04 17:33N 51°16' E 004°22'0 0.0
2015-Jul-04 16:33N 51°16' E 004°22'0 0.0
2015-Jul-04 15:33N 51°16' E 004°22'0 0.0
2015-Jul-04 14:33N 51°16' E 004°22'0 0.0
2015-Jul-04 13:33N 51°16' E 004°22'0 0.0
2015-Jul-04 12:33N 51°16' E 004°22'0 0.0
2015-Jul-04 11:33N 51°16' E 004°22'0 0.0
2015-Jul-04 10:33N 51°16' E 004°22'0 0.0
2015-Jul-04 09:33N 51°16' E 004°22'0 0.0
2015-Jul-04 08:33N 51°16' E 004°22'0 0.0
2015-Jul-04 07:33N 51°16' E 004°22'0 0.0
2015-Jul-04 06:33N 51°16' E 004°22'0 0.0
2015-Jul-04 05:33N 51°16' E 004°22'0 0.1
2015-Jul-04 04:33N 51°16' E 004°22'1 0.9
2015-Jul-04 03:33N 51°17' E 004°22'0 0.0
2015-Jul-04 02:33N 51°17' E 004°22'0 0.0
2015-Jul-04 01:33N 51°17' E 004°22'0 0.0
2015-Jul-04 00:33N 51°17' E 004°22'0 0.0
2015-Jul-03 23:33N 51°17' E 004°22'0 0.0
2015-Jul-03 22:33N 51°17' E 004°22'0 0.0
2015-Jul-03 21:33N 51°17' E 004°22'0 0.0
2015-Jul-03 20:33N 51°17' E 004°22'0 0.0
2015-Jul-03 19:33N 51°17' E 004°22'0 0.0
2015-Jul-03 18:33N 51°17' E 004°22'0 0.0
2015-Jul-03 17:33N 51°17' E 004°22'0 0.0
2015-Jul-03 16:33N 51°17' E 004°22'0 0.1
2015-Jul-03 15:33N 51°17' E 004°22'0 0.0
2015-Jul-03 14:33N 51°17' E 004°22'0 0.0
2015-Jul-03 13:33N 51°17' E 004°22'0 0.0
2015-Jul-03 12:33N 51°17' E 004°22'0 0.0
2015-Jul-03 11:33N 51°17' E 004°22'0 0.0
2015-Jul-03 10:33N 51°17' E 004°22'0 0.0
2015-Jul-03 09:33N 51°17' E 004°22'0 0.0
2015-Jul-03 08:33N 51°17' E 004°22'0 0.0
2015-Jul-03 07:33N 51°17' E 004°22'0 0.0
2015-Jul-03 06:33N 51°17' E 004°22'0 0.0
2015-Jul-03 05:33N 51°17' E 004°22'0 0.0
2015-Jul-03 04:33N 51°17' E 004°22'0 0.0
2015-Jul-03 03:33N 51°17' E 004°22'0 0.0
2015-Jul-03 02:33N 51°17' E 004°22'0 0.0
2015-Jul-03 01:33N 51°17' E 004°22'0 0.0
2015-Jul-03 00:33N 51°17' E 004°22'0 0.0
2015-Jul-02 23:33N 51°17' E 004°22'0 0.0
2015-Jul-02 22:33N 51°17' E 004°22'0 0.0
2015-Jul-02 21:33N 51°17' E 004°22'0 0.0
2015-Jul-02 20:33N 51°17' E 004°22'0 0.0
2015-Jul-02 19:33N 51°17' E 004°22'0 0.0
2015-Jul-02 18:33N 51°17' E 004°22'1 1.2
2015-Jul-02 17:33N 51°18' E 004°20'0 0.0
2015-Jul-02 16:33N 51°18' E 004°20'0 0.0
2015-Jul-02 15:33N 51°18' E 004°20'0 0.0
2015-Jul-02 14:33N 51°18' E 004°20'0 0.0
2015-Jul-02 13:33N 51°18' E 004°20'0 0.0
2015-Jul-02 12:33N 51°18' E 004°20'0 0.0
2015-Jul-02 11:33N 51°18' E 004°20'0 0.0
2015-Jul-02 10:33N 51°18' E 004°20'0 0.0
2015-Jul-02 09:33N 51°18' E 004°20'0 0.0
2015-Jul-02 08:33N 51°18' E 004°20'0 0.0
2015-Jul-02 07:33N 51°18' E 004°20'0 0.0
2015-Jul-02 06:33N 51°18' E 004°20'0 0.0
2015-Jul-02 05:33N 51°18' E 004°20'3 3.4
2015-Jul-02 04:33N 51°21' E 004°18'6 5.8
2015-Jul-02 03:33N 51°26' E 004°14'2 1.9
2015-Jul-02 02:33N 51°28' E 004°14'6 6.2
2015-Jul-02 01:33N 51°34' E 004°13'5 4.8
2015-Jul-02 00:29N 51°39' E 004°16'9 4.4
2015-Jul-01 22:31N 51°42' E 004°29'6 6.7
2015-Jul-01 21:33N 51°43' E 004°39'7 6.9
2015-Jul-01 20:30N 51°48' E 004°48'18 7.7
2015-Jul-01 18:14N 51°49' E 005°17'21 7.6
2015-Jul-01 15:30N 51°52' E 005°50'8 5.8
2015-Jul-01 14:09N 51°52' E 006°02'9 8.7
2015-Jul-01 13:10N 51°49' E 006°16'15 7.6
2015-Jul-01 11:09N 51°40' E 006°34'6 6.4
2015-Jul-01 10:16N 51°35' E 006°39'17 6.3
2015-Jul-01 07:33N 51°18' E 006°43'6 5.7
2015-Jul-01 06:33N 51°12' E 006°44'20 6.6
2015-Jul-01 03:29N 50°54' E 006°59'  

Dump ship's entire track history